sensor_id;sensor_type;location;lat;lon;timestamp;pressure;altitude;pressure_sealevel;temperature;humidity
7264;BME280;3673;52.480;13.348;2023-04-22T00:01:05;101064.44;;;18.76;33.50
7264;BME280;3673;52.480;13.348;2023-04-22T00:03:32;101056.06;;;18.60;33.46
7264;BME280;3673;52.480;13.348;2023-04-22T00:05:59;101058.50;;;18.68;33.65
7264;BME280;3673;52.480;13.348;2023-04-22T00:08:26;101052.44;;;18.63;33.68
7264;BME280;3673;52.480;13.348;2023-04-22T00:10:53;101047.81;;;18.71;33.61
7264;BME280;3673;52.480;13.348;2023-04-22T00:13:21;101047.22;;;18.61;33.58
7264;BME280;3673;52.480;13.348;2023-04-22T00:15:47;101035.53;;;18.36;33.95
7264;BME280;3673;52.480;13.348;2023-04-22T00:18:16;101034.25;;;18.49;34.01
7264;BME280;3673;52.480;13.348;2023-04-22T00:20:42;101037.19;;;18.38;33.96
7264;BME280;3673;52.480;13.348;2023-04-22T00:23:11;101029.31;;;18.37;34.03
7264;BME280;3673;52.480;13.348;2023-04-22T00:25:39;101034.34;;;18.46;34.01
7264;BME280;3673;52.480;13.348;2023-04-22T00:28:06;101030.00;;;18.43;33.98
7264;BME280;3673;52.480;13.348;2023-04-22T00:30:33;101024.47;;;18.52;34.03
7264;BME280;3673;52.480;13.348;2023-04-22T00:33:00;101024.56;;;18.48;33.87
7264;BME280;3673;52.480;13.348;2023-04-22T00:35:28;101025.63;;;18.42;34.00
7264;BME280;3673;52.480;13.348;2023-04-22T00:37:55;101020.53;;;18.35;33.96
7264;BME280;3673;52.480;13.348;2023-04-22T00:40:21;101024.13;;;18.32;34.19
7264;BME280;3673;52.480;13.348;2023-04-22T00:42:49;101024.28;;;18.28;34.22
7264;BME280;3673;52.480;13.348;2023-04-22T00:45:17;101015.66;;;18.21;34.59
7264;BME280;3673;52.480;13.348;2023-04-22T00:47:46;101005.69;;;18.29;34.19
7264;BME280;3673;52.480;13.348;2023-04-22T00:50:13;101005.81;;;18.25;34.37
7264;BME280;3673;52.480;13.348;2023-04-22T00:52:41;101003.03;;;18.29;34.20
7264;BME280;3673;52.480;13.348;2023-04-22T00:55:09;101005.59;;;18.32;34.42
7264;BME280;3673;52.480;13.348;2023-04-22T00:57:36;101011.38;;;18.16;34.57
7264;BME280;3673;52.480;13.348;2023-04-22T01:00:05;101010.47;;;18.17;34.45
7264;BME280;3673;52.480;13.348;2023-04-22T01:02:35;101013.84;;;18.22;34.52
7264;BME280;3673;52.480;13.348;2023-04-22T01:05:02;101002.53;;;18.17;34.49
7264;BME280;3673;52.480;13.348;2023-04-22T01:07:29;101002.44;;;17.87;34.97
7264;BME280;3673;52.480;13.348;2023-04-22T01:09:57;101007.38;;;18.01;34.99
7264;BME280;3673;52.480;13.348;2023-04-22T01:12:24;101002.94;;;18.01;34.97
7264;BME280;3673;52.480;13.348;2023-04-22T01:14:51;101002.09;;;18.01;34.61
7264;BME280;3673;52.480;13.348;2023-04-22T01:17:18;101001.31;;;17.96;34.70
7264;BME280;3673;52.480;13.348;2023-04-22T01:19:47;100998.56;;;18.00;34.87
7264;BME280;3673;52.480;13.348;2023-04-22T01:22:14;101007.78;;;17.86;35.04
7264;BME280;3673;52.480;13.348;2023-04-22T01:24:42;100998.97;;;17.85;35.19
7264;BME280;3673;52.480;13.348;2023-04-22T01:27:09;100998.84;;;17.90;35.35
7264;BME280;3673;52.480;13.348;2023-04-22T01:29:37;100992.75;;;17.88;35.22
7264;BME280;3673;52.480;13.348;2023-04-22T01:32:05;100994.97;;;17.69;35.51
7264;BME280;3673;52.480;13.348;2023-04-22T01:34:32;100996.53;;;17.78;35.35
7264;BME280;3673;52.480;13.348;2023-04-22T01:36:58;100998.34;;;17.76;35.60
7264;BME280;3673;52.480;13.348;2023-04-22T01:39:26;100988.81;;;17.69;35.44
7264;BME280;3673;52.480;13.348;2023-04-22T01:41:54;100993.22;;;17.70;35.48
7264;BME280;3673;52.480;13.348;2023-04-22T01:44:23;100990.47;;;17.73;35.41
7264;BME280;3673;52.480;13.348;2023-04-22T01:46:49;100984.47;;;17.66;35.84
7264;BME280;3673;52.480;13.348;2023-04-22T01:49:16;100983.41;;;17.73;35.66
7264;BME280;3673;52.480;13.348;2023-04-22T01:51:43;100983.03;;;17.53;35.74
7264;BME280;3673;52.480;13.348;2023-04-22T01:54:10;100986.53;;;17.54;35.77
7264;BME280;3673;52.480;13.348;2023-04-22T01:56:37;100975.00;;;17.58;35.58
7264;BME280;3673;52.480;13.348;2023-04-22T01:59:06;100979.38;;;17.59;35.73
7264;BME280;3673;52.480;13.348;2023-04-22T02:01:33;100967.91;;;17.58;35.70
7264;BME280;3673;52.480;13.348;2023-04-22T02:04:00;100966.28;;;17.52;35.70
7264;BME280;3673;52.480;13.348;2023-04-22T02:06:26;100967.81;;;17.63;35.67
7264;BME280;3673;52.480;13.348;2023-04-22T02:08:53;100960.03;;;17.57;35.36
7264;BME280;3673;52.480;13.348;2023-04-22T02:11:20;100963.50;;;17.59;35.95
7264;BME280;3673;52.480;13.348;2023-04-22T02:13:47;100941.84;;;17.43;35.31
7264;BME280;3673;52.480;13.348;2023-04-22T02:16:15;100953.41;;;17.39;35.83
7264;BME280;3673;52.480;13.348;2023-04-22T02:18:42;100949.81;;;17.41;35.72
7264;BME280;3673;52.480;13.348;2023-04-22T02:21:09;100955.41;;;17.29;35.60
7264;BME280;3673;52.480;13.348;2023-04-22T02:23:36;100945.44;;;17.40;36.10
7264;BME280;3673;52.480;13.348;2023-04-22T02:26:04;100956.91;;;17.41;35.79
7264;BME280;3673;52.480;13.348;2023-04-22T02:28:31;100946.31;;;17.41;36.11
7264;BME280;3673;52.480;13.348;2023-04-22T02:30:58;100947.47;;;17.29;36.00
7264;BME280;3673;52.480;13.348;2023-04-22T02:33:26;100951.16;;;17.24;36.10
7264;BME280;3673;52.480;13.348;2023-04-22T02:35:53;100943.31;;;17.19;35.95
7264;BME280;3673;52.480;13.348;2023-04-22T02:38:19;100941.88;;;17.08;36.00
7264;BME280;3673;52.480;13.348;2023-04-22T02:40:46;100933.09;;;17.06;36.50
7264;BME280;3673;52.480;13.348;2023-04-22T02:43:13;100938.00;;;17.21;36.07
7264;BME280;3673;52.480;13.348;2023-04-22T02:45:40;100934.50;;;16.83;36.30
7264;BME280;3673;52.480;13.348;2023-04-22T02:48:06;100939.16;;;17.11;36.49
7264;BME280;3673;52.480;13.348;2023-04-22T02:50:34;100935.72;;;17.06;36.64
7264;BME280;3673;52.480;13.348;2023-04-22T02:53:01;100937.59;;;17.02;36.53
7264;BME280;3673;52.480;13.348;2023-04-22T02:55:28;100937.50;;;17.05;36.36
7264;BME280;3673;52.480;13.348;2023-04-22T02:57:55;100931.63;;;16.94;36.77
7264;BME280;3673;52.480;13.348;2023-04-22T03:00:22;100934.28;;;16.94;36.57
7264;BME280;3673;52.480;13.348;2023-04-22T03:02:48;100937.22;;;16.80;37.01
7264;BME280;3673;52.480;13.348;2023-04-22T03:05:15;100937.53;;;16.67;37.24
7264;BME280;3673;52.480;13.348;2023-04-22T03:07:43;100937.72;;;16.59;37.16
7264;BME280;3673;52.480;13.348;2023-04-22T03:10:12;100929.47;;;16.73;37.05
7264;BME280;3673;52.480;13.348;2023-04-22T03:12:38;100929.97;;;16.88;36.84
7264;BME280;3673;52.480;13.348;2023-04-22T03:15:06;100937.03;;;16.88;36.74
7264;BME280;3673;52.480;13.348;2023-04-22T03:17:33;100936.75;;;16.63;36.84
7264;BME280;3673;52.480;13.348;2023-04-22T03:20:00;100934.13;;;16.20;37.79
7264;BME280;3673;52.480;13.348;2023-04-22T03:22:27;100942.69;;;16.31;37.80
7264;BME280;3673;52.480;13.348;2023-04-22T03:24:55;100932.75;;;16.42;37.96
7264;BME280;3673;52.480;13.348;2023-04-22T03:27:21;100929.03;;;16.53;37.89
7264;BME280;3673;52.480;13.348;2023-04-22T03:29:48;100932.53;;;16.53;37.74
7264;BME280;3673;52.480;13.348;2023-04-22T03:32:15;100928.28;;;16.46;37.94
7264;BME280;3673;52.480;13.348;2023-04-22T03:34:42;100938.66;;;16.57;37.68
7264;BME280;3673;52.480;13.348;2023-04-22T03:37:08;100939.88;;;16.40;37.96
7264;BME280;3673;52.480;13.348;2023-04-22T03:39:35;100936.34;;;16.40;37.76
7264;BME280;3673;52.480;13.348;2023-04-22T03:42:03;100935.50;;;16.38;38.13
7264;BME280;3673;52.480;13.348;2023-04-22T03:44:30;100933.63;;;16.43;38.14
7264;BME280;3673;52.480;13.348;2023-04-22T03:46:57;100938.19;;;16.36;37.96
7264;BME280;3673;52.480;13.348;2023-04-22T03:49:23;100938.13;;;16.38;37.66
7264;BME280;3673;52.480;13.348;2023-04-22T03:51:50;100933.94;;;16.29;38.08
7264;BME280;3673;52.480;13.348;2023-04-22T03:54:18;100934.94;;;16.24;38.01
7264;BME280;3673;52.480;13.348;2023-04-22T03:56:45;100929.75;;;16.19;37.99
7264;BME280;3673;52.480;13.348;2023-04-22T03:59:13;100930.72;;;16.15;37.84
7264;BME280;3673;52.480;13.348;2023-04-22T04:01:39;100938.75;;;16.09;38.04
7264;BME280;3673;52.480;13.348;2023-04-22T04:04:06;100943.00;;;16.18;38.56
7264;BME280;3673;52.480;13.348;2023-04-22T04:06:33;100932.38;;;16.21;38.34
7264;BME280;3673;52.480;13.348;2023-04-22T04:09:00;100934.22;;;16.16;38.11
7264;BME280;3673;52.480;13.348;2023-04-22T04:11:28;100938.69;;;16.12;38.29
7264;BME280;3673;52.480;13.348;2023-04-22T04:13:54;100936.84;;;16.17;38.14
7264;BME280;3673;52.480;13.348;2023-04-22T04:16:23;100939.56;;;16.14;38.28
7264;BME280;3673;52.480;13.348;2023-04-22T04:18:50;100932.66;;;16.06;38.00
7264;BME280;3673;52.480;13.348;2023-04-22T04:21:17;100934.31;;;16.11;38.56
7264;BME280;3673;52.480;13.348;2023-04-22T04:23:43;100932.38;;;16.21;38.19
7264;BME280;3673;52.480;13.348;2023-04-22T04:26:10;100935.97;;;16.17;38.08
7264;BME280;3673;52.480;13.348;2023-04-22T04:28:39;100938.69;;;16.12;38.49
7264;BME280;3673;52.480;13.348;2023-04-22T04:31:06;100933.47;;;16.09;38.51
7264;BME280;3673;52.480;13.348;2023-04-22T04:33:34;100927.38;;;16.07;38.57
7264;BME280;3673;52.480;13.348;2023-04-22T04:36:02;100937.41;;;15.90;38.59
7264;BME280;3673;52.480;13.348;2023-04-22T04:38:29;100936.47;;;15.92;38.21
7264;BME280;3673;52.480;13.348;2023-04-22T04:40:56;100940.50;;;16.10;38.70
7264;BME280;3673;52.480;13.348;2023-04-22T04:43:23;100936.78;;;16.20;38.29
7264;BME280;3673;52.480;13.348;2023-04-22T04:45:51;100928.19;;;16.09;38.50
7264;BME280;3673;52.480;13.348;2023-04-22T04:48:18;100931.44;;;16.22;38.28
7264;BME280;3673;52.480;13.348;2023-04-22T04:50:46;100933.25;;;16.20;38.53
7264;BME280;3673;52.480;13.348;2023-04-22T04:53:14;100938.22;;;16.35;38.20
7264;BME280;3673;52.480;13.348;2023-04-22T04:55:41;100940.31;;;16.19;38.45
7264;BME280;3673;52.480;13.348;2023-04-22T04:58:08;100941.88;;;16.28;38.43
7264;BME280;3673;52.480;13.348;2023-04-22T05:00:35;100932.53;;;16.13;38.17
7264;BME280;3673;52.480;13.348;2023-04-22T05:03:02;100935.19;;;16.12;38.56
7264;BME280;3673;52.480;13.348;2023-04-22T05:05:28;100935.31;;;16.06;38.46
7264;BME280;3673;52.480;13.348;2023-04-22T05:07:56;100932.25;;;16.25;38.35
7264;BME280;3673;52.480;13.348;2023-04-22T05:10:23;100935.63;;;16.33;38.44
7264;BME280;3673;52.480;13.348;2023-04-22T05:12:50;100942.72;;;16.30;38.19
7264;BME280;3673;52.480;13.348;2023-04-22T05:15:17;100930.34;;;16.32;38.52
7264;BME280;3673;52.480;13.348;2023-04-22T05:17:44;100934.50;;;16.43;38.22
7264;BME280;3673;52.480;13.348;2023-04-22T05:20:11;100929.25;;;16.42;38.27
7264;BME280;3673;52.480;13.348;2023-04-22T05:22:38;100933.41;;;16.55;38.34
7264;BME280;3673;52.480;13.348;2023-04-22T05:25:09;100934.44;;;16.46;38.05
7264;BME280;3673;52.480;13.348;2023-04-22T05:27:36;100937.00;;;16.49;37.80
7264;BME280;3673;52.480;13.348;2023-04-22T05:30:04;100929.25;;;16.42;38.09
7264;BME280;3673;52.480;13.348;2023-04-22T05:32:32;100938.72;;;16.52;37.98
7264;BME280;3673;52.480;13.348;2023-04-22T05:34:58;100937.56;;;16.65;37.80
7264;BME280;3673;52.480;13.348;2023-04-22T05:37:25;100932.34;;;16.64;37.85
7264;BME280;3673;52.480;13.348;2023-04-22T05:39:52;100932.34;;;16.62;37.78
7264;BME280;3673;52.480;13.348;2023-04-22T05:42:20;100925.81;;;16.78;37.50
7264;BME280;3673;52.480;13.348;2023-04-22T05:44:47;100939.66;;;16.89;37.16
7264;BME280;3673;52.480;13.348;2023-04-22T05:47:14;100937.00;;;16.89;37.31
7264;BME280;3673;52.480;13.348;2023-04-22T05:49:41;100932.78;;;16.82;37.69
7264;BME280;3673;52.480;13.348;2023-04-22T05:52:07;100941.78;;;16.74;37.80
7264;BME280;3673;52.480;13.348;2023-04-22T05:54:36;100940.19;;;16.67;37.79
7264;BME280;3673;52.480;13.348;2023-04-22T05:57:02;100940.03;;;16.73;37.69
7264;BME280;3673;52.480;13.348;2023-04-22T05:59:31;100942.88;;;17.02;37.62
7264;BME280;3673;52.480;13.348;2023-04-22T06:01:57;100934.66;;;17.14;37.28
7264;BME280;3673;52.480;13.348;2023-04-22T06:04:24;100933.81;;;17.12;37.10
7264;BME280;3673;52.480;13.348;2023-04-22T06:06:51;100945.34;;;17.10;37.40
7264;BME280;3673;52.480;13.348;2023-04-22T06:09:19;100944.91;;;17.26;36.95
7264;BME280;3673;52.480;13.348;2023-04-22T06:11:46;100936.63;;;17.40;36.32
7264;BME280;3673;52.480;13.348;2023-04-22T06:14:13;100936.44;;;17.47;36.51
7264;BME280;3673;52.480;13.348;2023-04-22T06:16:42;100926.78;;;17.45;36.77
7264;BME280;3673;52.480;13.348;2023-04-22T06:19:09;100943.50;;;17.47;36.58
7264;BME280;3673;52.480;13.348;2023-04-22T06:21:35;100943.66;;;17.75;36.17
7264;BME280;3673;52.480;13.348;2023-04-22T06:24:05;100943.97;;;17.95;36.02
7264;BME280;3673;52.480;13.348;2023-04-22T06:26:32;100944.03;;;17.93;35.50
7264;BME280;3673;52.480;13.348;2023-04-22T06:28:59;100934.25;;;17.97;35.61
7264;BME280;3673;52.480;13.348;2023-04-22T06:31:27;100941.00;;;18.07;34.87
7264;BME280;3673;52.480;13.348;2023-04-22T06:33:55;100939.06;;;18.14;35.07
7264;BME280;3673;52.480;13.348;2023-04-22T06:36:22;100944.81;;;18.28;35.07
7264;BME280;3673;52.480;13.348;2023-04-22T06:38:50;100946.91;;;18.46;34.69
7264;BME280;3673;52.480;13.348;2023-04-22T06:41:17;100938.88;;;18.50;34.60
7264;BME280;3673;52.480;13.348;2023-04-22T06:43:44;100934.88;;;18.65;34.74
7264;BME280;3673;52.480;13.348;2023-04-22T06:46:11;100932.78;;;18.75;34.37
7264;BME280;3673;52.480;13.348;2023-04-22T06:48:38;100926.00;;;18.94;34.01
7264;BME280;3673;52.480;13.348;2023-04-22T06:51:06;100927.25;;;19.10;33.88
7264;BME280;3673;52.480;13.348;2023-04-22T06:53:33;100927.00;;;19.18;33.56
7264;BME280;3673;52.480;13.348;2023-04-22T06:56:00;100926.06;;;19.19;33.49
7264;BME280;3673;52.480;13.348;2023-04-22T06:58:27;100925.16;;;19.20;33.96
7264;BME280;3673;52.480;13.348;2023-04-22T07:00:54;100919.69;;;19.24;33.43
7264;BME280;3673;52.480;13.348;2023-04-22T07:03:21;100922.03;;;19.33;33.62
7264;BME280;3673;52.480;13.348;2023-04-22T07:05:48;100929.88;;;19.36;33.24
7264;BME280;3673;52.480;13.348;2023-04-22T07:08:16;100921.50;;;19.50;33.01
7264;BME280;3673;52.480;13.348;2023-04-22T07:10:45;100924.00;;;19.55;33.09
7264;BME280;3673;52.480;13.348;2023-04-22T07:13:15;100922.06;;;19.58;33.34
7264;BME280;3673;52.480;13.348;2023-04-22T07:15:42;100931.06;;;19.79;32.92
7264;BME280;3673;52.480;13.348;2023-04-22T07:18:10;100933.69;;;19.80;33.16
7264;BME280;3673;52.480;13.348;2023-04-22T07:20:37;100937.78;;;19.89;32.62
7264;BME280;3673;52.480;13.348;2023-04-22T07:23:04;100925.53;;;20.10;32.09
7264;BME280;3673;52.480;13.348;2023-04-22T07:25:32;100925.41;;;20.37;31.81
7264;BME280;3673;52.480;13.348;2023-04-22T07:27:59;100932.09;;;20.23;31.55
7264;BME280;3673;52.480;13.348;2023-04-22T07:30:26;100935.03;;;20.40;31.56
7264;BME280;3673;52.480;13.348;2023-04-22T07:32:53;100920.47;;;20.50;31.54
7264;BME280;3673;52.480;13.348;2023-04-22T07:35:20;100919.97;;;20.62;31.43
7264;BME280;3673;52.480;13.348;2023-04-22T07:37:47;100918.22;;;20.84;31.25
7264;BME280;3673;52.480;13.348;2023-04-22T07:40:13;100918.41;;;21.01;30.93
7264;BME280;3673;52.480;13.348;2023-04-22T07:42:42;100922.84;;;21.01;30.78
7264;BME280;3673;52.480;13.348;2023-04-22T07:45:09;100917.00;;;21.15;30.78
7264;BME280;3673;52.480;13.348;2023-04-22T07:47:36;100914.69;;;21.27;30.26
7264;BME280;3673;52.480;13.348;2023-04-22T07:50:03;100908.13;;;21.14;30.37
7264;BME280;3673;52.480;13.348;2023-04-22T07:52:30;100906.03;;;21.42;29.93
7264;BME280;3673;52.480;13.348;2023-04-22T07:54:57;100905.03;;;21.45;30.02
7264;BME280;3673;52.480;13.348;2023-04-22T07:57:24;100898.25;;;21.38;29.85
7264;BME280;3673;52.480;13.348;2023-04-22T07:59:52;100899.19;;;21.57;29.63
7264;BME280;3673;52.480;13.348;2023-04-22T08:02:19;100890.47;;;21.53;29.78
7264;BME280;3673;52.480;13.348;2023-04-22T08:04:46;100892.38;;;21.70;29.50
7264;BME280;3673;52.480;13.348;2023-04-22T08:07:13;100887.38;;;21.83;29.21
7264;BME280;3673;52.480;13.348;2023-04-22T08:09:40;100886.09;;;22.12;29.13
7264;BME280;3673;52.480;13.348;2023-04-22T08:12:07;100888.00;;;21.89;29.17
7264;BME280;3673;52.480;13.348;2023-04-22T08:14:34;100885.16;;;22.31;28.73
7264;BME280;3673;52.480;13.348;2023-04-22T08:17:02;100890.25;;;22.36;28.57
7264;BME280;3673;52.480;13.348;2023-04-22T08:19:29;100879.66;;;22.53;28.42
7264;BME280;3673;52.480;13.348;2023-04-22T08:21:56;100881.03;;;22.62;28.13
7264;BME280;3673;52.480;13.348;2023-04-22T08:24:23;100873.53;;;22.88;27.82
7264;BME280;3673;52.480;13.348;2023-04-22T08:26:50;100875.91;;;22.57;28.33
7264;BME280;3673;52.480;13.348;2023-04-22T08:29:17;100872.31;;;22.58;28.43
7264;BME280;3673;52.480;13.348;2023-04-22T08:31:44;100879.38;;;22.78;28.44
7264;BME280;3673;52.480;13.348;2023-04-22T08:34:12;100869.78;;;22.74;28.48
7264;BME280;3673;52.480;13.348;2023-04-22T08:36:39;100875.34;;;22.69;28.63
7264;BME280;3673;52.480;13.348;2023-04-22T08:39:06;100876.97;;;22.90;28.58
7264;BME280;3673;52.480;13.348;2023-04-22T08:41:33;100861.72;;;22.92;28.27
7264;BME280;3673;52.480;13.348;2023-04-22T08:44:01;100872.66;;;23.22;28.01
7264;BME280;3673;52.480;13.348;2023-04-22T08:46:29;100871.97;;;23.19;27.98
7264;BME280;3673;52.480;13.348;2023-04-22T08:48:57;100864.19;;;22.97;28.41
7264;BME280;3673;52.480;13.348;2023-04-22T08:51:30;100872.47;;;22.74;28.79
7264;BME280;3673;52.480;13.348;2023-04-22T08:53:58;100868.84;;;23.28;28.38
7264;BME280;3673;52.480;13.348;2023-04-22T08:56:26;100874.19;;;23.28;28.05
7264;BME280;3673;52.480;13.348;2023-04-22T08:58:54;100876.84;;;23.62;27.93
7264;BME280;3673;52.480;13.348;2023-04-22T09:01:21;100875.47;;;23.88;27.88
7264;BME280;3673;52.480;13.348;2023-04-22T09:03:48;100874.91;;;23.98;27.50
7264;BME280;3673;52.480;13.348;2023-04-22T09:06:16;100867.78;;;23.82;27.76
7264;BME280;3673;52.480;13.348;2023-04-22T09:08:46;100859.50;;;23.86;27.52
7264;BME280;3673;52.480;13.348;2023-04-22T09:11:15;100862.72;;;23.93;27.28
7264;BME280;3673;52.480;13.348;2023-04-22T09:13:42;100865.84;;;24.01;27.35
7264;BME280;3673;52.480;13.348;2023-04-22T09:16:09;100859.78;;;24.30;26.77
7264;BME280;3673;52.480;13.348;2023-04-22T09:18:40;100856.03;;;24.80;26.71
7264;BME280;3673;52.480;13.348;2023-04-22T09:21:08;100846.63;;;24.73;26.76
7264;BME280;3673;52.480;13.348;2023-04-22T09:23:47;100844.44;;;25.10;26.23
7264;BME280;3673;52.480;13.348;2023-04-22T09:26:14;100841.13;;;25.21;26.41
7264;BME280;3673;52.480;13.348;2023-04-22T09:28:49;100843.25;;;25.00;26.15
7264;BME280;3673;52.480;13.348;2023-04-22T09:31:16;100837.31;;;25.25;26.15
7264;BME280;3673;52.480;13.348;2023-04-22T09:33:48;100834.19;;;25.47;25.69
7264;BME280;3673;52.480;13.348;2023-04-22T09:36:15;100834.91;;;25.93;25.11
7264;BME280;3673;52.480;13.348;2023-04-22T09:38:52;100836.06;;;25.89;24.99
7264;BME280;3673;52.480;13.348;2023-04-22T09:41:26;100829.84;;;26.17;24.51
7264;BME280;3673;52.480;13.348;2023-04-22T09:43:55;100825.00;;;26.36;24.43
7264;BME280;3673;52.480;13.348;2023-04-22T09:46:23;100821.88;;;26.56;24.13
7264;BME280;3673;52.480;13.348;2023-04-22T09:48:51;100820.63;;;27.28;23.78
7264;BME280;3673;52.480;13.348;2023-04-22T09:51:19;100823.59;;;27.10;23.87
7264;BME280;3673;52.480;13.348;2023-04-22T09:53:59;100821.72;;;27.63;22.73
7264;BME280;3673;52.480;13.348;2023-04-22T09:56:46;100802.63;;;27.16;23.30
7264;BME280;3673;52.480;13.348;2023-04-22T09:59:18;100807.38;;;28.00;22.38
7264;BME280;3673;52.480;13.348;2023-04-22T10:01:46;100800.22;;;28.37;22.35
7264;BME280;3673;52.480;13.348;2023-04-22T10:04:13;100803.94;;;28.47;21.86
7264;BME280;3673;52.480;13.348;2023-04-22T10:06:41;100800.19;;;28.01;22.20
7264;BME280;3673;52.480;13.348;2023-04-22T10:09:09;100788.72;;;28.35;22.03
7264;BME280;3673;52.480;13.348;2023-04-22T10:11:37;100801.06;;;29.20;20.53
7264;BME280;3673;52.480;13.348;2023-04-22T10:14:05;100796.84;;;28.94;20.44
7264;BME280;3673;52.480;13.348;2023-04-22T10:16:36;100793.09;;;28.36;21.15
7264;BME280;3673;52.480;13.348;2023-04-22T10:19:06;100783.19;;;28.60;21.54
7264;BME280;3673;52.480;13.348;2023-04-22T10:21:34;100784.28;;;28.34;21.29
7264;BME280;3673;52.480;13.348;2023-04-22T10:24:03;100770.59;;;28.61;21.18
7264;BME280;3673;52.480;13.348;2023-04-22T10:26:46;100773.69;;;28.91;20.50
7264;BME280;3673;52.480;13.348;2023-04-22T10:29:15;100762.38;;;28.62;21.08
7264;BME280;3673;52.480;13.348;2023-04-22T10:31:43;100768.94;;;29.52;19.85
7264;BME280;3673;52.480;13.348;2023-04-22T10:34:12;100758.00;;;29.76;19.61
7264;BME280;3673;52.480;13.348;2023-04-22T10:36:57;100752.25;;;29.80;20.15
7264;BME280;3673;52.480;13.348;2023-04-22T10:39:26;100751.38;;;30.56;19.31
7264;BME280;3673;52.480;13.348;2023-04-22T10:42:04;100746.03;;;30.34;18.71
7264;BME280;3673;52.480;13.348;2023-04-22T10:44:49;100745.59;;;30.29;19.12
7264;BME280;3673;52.480;13.348;2023-04-22T10:47:27;100750.97;;;30.72;18.42
7264;BME280;3673;52.480;13.348;2023-04-22T10:50:21;100746.81;;;30.68;18.60
7264;BME280;3673;52.480;13.348;2023-04-22T10:52:54;100739.34;;;30.60;17.74
7264;BME280;3673;52.480;13.348;2023-04-22T10:55:22;100740.47;;;30.57;17.04
7264;BME280;3673;52.480;13.348;2023-04-22T10:57:52;100740.00;;;29.54;17.58
7264;BME280;3673;52.480;13.348;2023-04-22T11:00:38;100735.25;;;30.34;16.26
7264;BME280;3673;52.480;13.348;2023-04-22T11:03:13;100735.59;;;29.31;17.76
7264;BME280;3673;52.480;13.348;2023-04-22T11:05:41;100738.63;;;30.04;17.49
7264;BME280;3673;52.480;13.348;2023-04-22T11:08:17;100733.69;;;30.63;17.66
7264;BME280;3673;52.480;13.348;2023-04-22T11:10:47;100728.59;;;31.01;17.35
7264;BME280;3673;52.480;13.348;2023-04-22T11:13:17;100719.19;;;30.32;17.73
7264;BME280;3673;52.480;13.348;2023-04-22T11:15:47;100713.97;;;30.08;17.97
7264;BME280;3673;52.480;13.348;2023-04-22T11:18:19;100712.78;;;31.48;16.76
7264;BME280;3673;52.480;13.348;2023-04-22T11:20:48;100707.38;;;30.33;17.78
7264;BME280;3673;52.480;13.348;2023-04-22T11:23:22;100715.91;;;31.83;16.99
7264;BME280;3673;52.480;13.348;2023-04-22T11:25:54;100711.59;;;31.41;16.84
7264;BME280;3673;52.480;13.348;2023-04-22T11:28:23;100705.63;;;31.68;16.93
7264;BME280;3673;52.480;13.348;2023-04-22T11:30:50;100698.38;;;31.78;16.50
7264;BME280;3673;52.480;13.348;2023-04-22T11:33:18;100699.34;;;31.67;16.57
7264;BME280;3673;52.480;13.348;2023-04-22T11:35:48;100710.44;;;31.34;16.63
7264;BME280;3673;52.480;13.348;2023-04-22T11:38:15;100693.22;;;32.05;16.60
7264;BME280;3673;52.480;13.348;2023-04-22T11:40:42;100691.78;;;31.31;16.75
7264;BME280;3673;52.480;13.348;2023-04-22T11:43:10;100689.97;;;31.41;16.58
7264;BME280;3673;52.480;13.348;2023-04-22T11:45:39;100690.22;;;32.37;15.81
7264;BME280;3673;52.480;13.348;2023-04-22T11:48:08;100685.19;;;32.03;15.69
7264;BME280;3673;52.480;13.348;2023-04-22T11:50:38;100683.84;;;32.28;15.46
7264;BME280;3673;52.480;13.348;2023-04-22T11:53:14;100678.56;;;32.46;15.61
7264;BME280;3673;52.480;13.348;2023-04-22T11:55:42;100673.69;;;32.49;15.37
7264;BME280;3673;52.480;13.348;2023-04-22T11:58:12;100677.81;;;32.92;15.24
7264;BME280;3673;52.480;13.348;2023-04-22T12:00:43;100678.00;;;32.71;15.01
7264;BME280;3673;52.480;13.348;2023-04-22T12:03:13;100680.81;;;32.50;14.85
7264;BME280;3673;52.480;13.348;2023-04-22T12:05:42;100681.09;;;32.76;14.84
7264;BME280;3673;52.480;13.348;2023-04-22T12:08:11;100668.81;;;31.95;14.92
7264;BME280;3673;52.480;13.348;2023-04-22T12:10:40;100678.53;;;32.17;14.91
7264;BME280;3673;52.480;13.348;2023-04-22T12:13:08;100678.13;;;32.70;14.19
7264;BME280;3673;52.480;13.348;2023-04-22T12:15:41;100673.53;;;32.80;14.65
7264;BME280;3673;52.480;13.348;2023-04-22T12:18:08;100681.22;;;32.94;14.23
7264;BME280;3673;52.480;13.348;2023-04-22T12:20:38;100669.56;;;33.30;13.68
7264;BME280;3673;52.480;13.348;2023-04-22T12:23:12;100671.81;;;32.98;14.11
7264;BME280;3673;52.480;13.348;2023-04-22T12:25:41;100668.94;;;32.90;13.75
7264;BME280;3673;52.480;13.348;2023-04-22T12:28:09;100663.16;;;32.75;14.66
7264;BME280;3673;52.480;13.348;2023-04-22T12:30:36;100658.66;;;33.12;13.96
7264;BME280;3673;52.480;13.348;2023-04-22T12:33:04;100662.50;;;33.10;14.29
7264;BME280;3673;52.480;13.348;2023-04-22T12:35:32;100656.84;;;33.68;13.83
7264;BME280;3673;52.480;13.348;2023-04-22T12:37:59;100653.81;;;34.33;13.42
7264;BME280;3673;52.480;13.348;2023-04-22T12:40:27;100666.25;;;32.90;13.91
7264;BME280;3673;52.480;13.348;2023-04-22T12:42:54;100654.31;;;33.56;13.78
7264;BME280;3673;52.480;13.348;2023-04-22T12:45:21;100649.16;;;33.26;13.75
7264;BME280;3673;52.480;13.348;2023-04-22T12:47:50;100652.59;;;32.24;14.18
7264;BME280;3673;52.480;13.348;2023-04-22T12:50:20;100653.88;;;32.39;14.12
7264;BME280;3673;52.480;13.348;2023-04-22T12:52:46;100638.31;;;32.03;14.30
7264;BME280;3673;52.480;13.348;2023-04-22T12:55:13;100636.03;;;32.56;13.64
7264;BME280;3673;52.480;13.348;2023-04-22T12:57:40;100642.84;;;32.98;13.92
7264;BME280;3673;52.480;13.348;2023-04-22T13:00:08;100629.94;;;33.20;13.66
7264;BME280;3673;52.480;13.348;2023-04-22T13:02:40;100627.94;;;33.76;13.25
7264;BME280;3673;52.480;13.348;2023-04-22T13:05:07;100637.75;;;34.04;13.30